Anton Chico, New Mexico
Current Conditions -  °F | °C
As of 4:53 AM on Saturday 25 Oct 2014 (Local Time) from KLVS Reporting Station
Clear Clear  
Wind Chill:   Ceiling: Unl
Heat Index:   Visibility: 10mi
Dew Point: -6°   Wind: 9mph
Humidity: 42%   Direction: 10°N
Pressure: 30.31"   Gusts: NA
Location:  35.2°N, 105.14°W
Report Text: KLVS 251053Z AUTO 01008KT 10SM CLR 06/M06 A3031 RMK AO2 SLP169 T00611061
Loading
Personal Weather Stations






























Interactive Weather Map
Tropical Storm Tracking
New forecast layout! Learn more

10-Day Weather Forecast

Advertisements
Track Severe Weather on mobile